createdAt,value
2019-05-25T00:02:16.999Z,13.00
2019-05-25T00:04:44.870Z,13.00
2019-05-25T00:07:12.807Z,12.90
2019-05-25T00:09:40.670Z,12.90
2019-05-25T00:12:08.533Z,12.80
2019-05-25T00:14:36.413Z,12.80
2019-05-25T00:17:04.271Z,12.80
2019-05-25T00:19:32.126Z,12.80
2019-05-25T00:21:59.991Z,12.90
2019-05-25T00:24:27.859Z,12.90
2019-05-25T00:26:55.734Z,12.90
2019-05-25T00:29:23.595Z,12.80
2019-05-25T00:31:51.462Z,12.80
2019-05-25T00:34:19.321Z,12.80
2019-05-25T00:36:47.189Z,12.70
2019-05-25T00:39:15.054Z,12.70
2019-05-25T00:41:42.909Z,12.70
2019-05-25T00:44:10.770Z,12.70
2019-05-25T00:46:38.639Z,12.80
2019-05-25T00:49:06.504Z,12.70
2019-05-25T00:51:34.361Z,12.70
2019-05-25T00:54:02.230Z,12.70
2019-05-25T00:56:30.087Z,12.70
2019-05-25T00:58:58.010Z,12.70
2019-05-25T01:01:25.934Z,12.70
2019-05-25T01:03:53.802Z,12.70
2019-05-25T01:06:21.666Z,12.50
2019-05-25T01:08:49.533Z,12.50
2019-05-25T01:11:17.398Z,12.50
2019-05-25T01:13:45.276Z,12.50
2019-05-25T01:16:13.145Z,12.40
2019-05-25T01:18:41.011Z,12.30
2019-05-25T01:21:08.954Z,12.40
2019-05-25T01:23:36.801Z,12.40
2019-05-25T01:26:04.666Z,12.40
2019-05-25T01:28:32.526Z,12.40
2019-05-25T01:31:00.395Z,12.50
2019-05-25T01:33:28.262Z,12.50
2019-05-25T01:35:56.097Z,12.40
2019-05-25T01:38:23.928Z,12.40
2019-05-25T01:40:51.795Z,12.30
2019-05-25T01:43:19.660Z,12.30
2019-05-25T01:45:47.521Z,12.20
2019-05-25T01:48:15.386Z,12.20
2019-05-25T01:50:43.253Z,12.00
2019-05-25T01:53:11.679Z,12.00
2019-05-25T01:55:39.691Z,11.90
2019-05-25T01:58:07.559Z,11.80
2019-05-25T02:00:35.423Z,11.80
2019-05-25T02:03:03.336Z,11.80
2019-05-25T02:05:31.287Z,11.80
2019-05-25T02:07:59.157Z,11.80
2019-05-25T02:10:27.017Z,11.70
2019-05-25T02:12:54.969Z,11.80
2019-05-25T02:15:23.026Z,11.80
2019-05-25T02:17:50.897Z,11.80
2019-05-25T02:20:18.861Z,11.70
2019-05-25T02:22:46.726Z,11.60
2019-05-25T02:25:18.006Z,11.70
2019-05-25T02:27:44.103Z,11.60
2019-05-25T02:30:12.393Z,11.60
2019-05-25T02:32:40.233Z,11.60
2019-05-25T02:35:08.306Z,11.60
2019-05-25T02:37:36.166Z,11.60
2019-05-25T02:40:06.925Z,11.60
2019-05-25T02:42:34.791Z,11.60
2019-05-25T02:45:02.681Z,11.60
2019-05-25T02:47:30.546Z,11.60
2019-05-25T02:49:58.416Z,11.60
2019-05-25T02:52:26.303Z,11.50
2019-05-25T02:54:54.169Z,11.50
2019-05-25T02:57:22.229Z,11.50
2019-05-25T02:59:50.098Z,11.50
2019-05-25T03:02:17.962Z,11.60
2019-05-25T03:04:45.843Z,11.60
2019-05-25T03:07:13.801Z,11.60
2019-05-25T03:09:42.266Z,11.70
2019-05-25T03:12:10.245Z,11.80
2019-05-25T03:14:38.111Z,11.80
2019-05-25T03:17:05.985Z,11.70
2019-05-25T03:19:33.849Z,11.80
2019-05-25T03:22:01.726Z,11.80
2019-05-25T03:24:29.589Z,11.90
2019-05-25T03:26:57.457Z,11.90
2019-05-25T03:29:26.290Z,12.00
2019-05-25T03:31:54.262Z,12.00
2019-05-25T03:34:22.139Z,12.00
2019-05-25T03:36:49.995Z,12.10
2019-05-25T03:39:17.854Z,12.10
2019-05-25T03:41:45.722Z,12.10
2019-05-25T03:44:13.595Z,12.20
2019-05-25T03:46:41.454Z,12.20
2019-05-25T03:49:09.325Z,12.20
2019-05-25T03:51:37.178Z,12.30
2019-05-25T03:54:05.043Z,12.20
2019-05-25T03:56:32.912Z,12.30
2019-05-25T03:59:00.775Z,12.20
2019-05-25T04:01:28.635Z,12.30
2019-05-25T04:03:56.502Z,12.30
2019-05-25T04:06:24.361Z,12.20
2019-05-25T04:08:52.237Z,12.20
2019-05-25T04:11:20.103Z,12.10
2019-05-25T04:13:48.031Z,12.20
2019-05-25T04:16:15.849Z,12.20
2019-05-25T04:18:43.722Z,12.20
2019-05-25T04:21:11.590Z,12.20
2019-05-25T04:23:39.510Z,12.20
2019-05-25T04:26:21.435Z,12.30
2019-05-25T04:28:36.892Z,12.30
2019-05-25T04:31:04.774Z,12.30
2019-05-25T04:33:32.638Z,12.30
2019-05-25T04:36:00.508Z,12.30
2019-05-25T04:38:28.373Z,12.30
2019-05-25T04:40:56.242Z,12.30
2019-05-25T04:43:24.103Z,12.40
2019-05-25T04:45:51.977Z,12.40
2019-05-25T04:48:19.847Z,12.30
2019-05-25T04:50:47.735Z,12.30
2019-05-25T04:53:15.582Z,12.20
2019-05-25T04:55:43.450Z,12.10
2019-05-25T04:58:11.311Z,12.10
2019-05-25T05:00:39.174Z,12.10
2019-05-25T05:03:07.038Z,12.10
2019-05-25T05:05:34.898Z,12.10
2019-05-25T05:08:02.767Z,12.00
2019-05-25T05:10:30.630Z,12.00
2019-05-25T05:12:58.494Z,12.00
2019-05-25T05:15:26.357Z,12.00
2019-05-25T05:17:54.244Z,12.00
2019-05-25T05:20:22.201Z,12.00
2019-05-25T05:22:50.074Z,12.00
2019-05-25T05:25:17.930Z,12.00
2019-05-25T05:27:45.794Z,11.90
2019-05-25T05:30:13.663Z,11.90
2019-05-25T05:32:41.529Z,11.90
2019-05-25T05:35:09.657Z,11.90
2019-05-25T05:37:37.523Z,12.00
2019-05-25T05:40:06.785Z,12.00
2019-05-25T05:42:35.647Z,12.10
2019-05-25T05:45:03.817Z,12.10
2019-05-25T05:47:33.145Z,12.10
2019-05-25T05:50:02.617Z,12.20
2019-05-25T05:52:31.945Z,12.20
2019-05-25T05:55:01.291Z,12.20
2019-05-25T05:57:29.146Z,12.30
2019-05-25T05:59:57.083Z,12.30
2019-05-25T06:02:25.012Z,12.40
2019-05-25T06:04:52.826Z,12.40
2019-05-25T06:07:20.971Z,12.40
2019-05-25T06:09:48.821Z,12.50
2019-05-25T06:12:16.690Z,12.50
2019-05-25T06:14:44.557Z,12.60
2019-05-25T06:17:12.426Z,12.60
2019-05-25T06:19:40.298Z,12.60
2019-05-25T06:22:08.157Z,12.70
2019-05-25T06:24:36.043Z,12.70
2019-05-25T06:27:04.111Z,12.80
2019-05-25T06:29:31.977Z,12.80
2019-05-25T06:31:59.839Z,12.90
2019-05-25T06:34:27.706Z,12.90
2019-05-25T06:36:55.575Z,12.90
2019-05-25T06:39:23.443Z,13.00
2019-05-25T06:41:51.326Z,13.00
2019-05-25T06:44:19.188Z,13.10
2019-05-25T06:46:47.090Z,13.20
2019-05-25T06:49:14.951Z,13.20
2019-05-25T06:51:42.781Z,13.40
2019-05-25T06:54:10.661Z,13.50
2019-05-25T06:56:38.519Z,13.70
2019-05-25T06:59:06.424Z,13.80
2019-05-25T07:01:34.334Z,13.90
2019-05-25T07:04:02.193Z,14.00
2019-05-25T07:06:30.029Z,14.20
2019-05-25T07:08:57.905Z,14.60
2019-05-25T07:11:25.767Z,14.90
2019-05-25T07:16:32.869Z,15.00
2019-05-25T07:19:00.726Z,14.90
2019-05-25T07:21:28.674Z,15.00
2019-05-25T07:23:56.558Z,15.20
2019-05-25T07:26:24.426Z,15.40
2019-05-25T07:28:52.290Z,15.60
2019-05-25T07:31:20.231Z,15.60
2019-05-25T07:33:48.097Z,15.60
2019-05-25T07:36:15.986Z,15.60
2019-05-25T07:38:43.854Z,15.50
2019-05-25T07:41:11.734Z,15.50
2019-05-25T07:43:39.641Z,15.60
2019-05-25T07:46:07.518Z,15.70
2019-05-25T07:48:35.408Z,15.60
2019-05-25T07:51:03.307Z,15.70
2019-05-25T07:53:31.137Z,15.70
2019-05-25T07:55:59.003Z,15.90
2019-05-25T07:58:26.878Z,16.10
2019-05-25T08:00:54.743Z,16.30
2019-05-25T08:03:22.614Z,16.40
2019-05-25T08:05:50.482Z,16.40
2019-05-25T08:08:18.360Z,16.50
2019-05-25T08:10:46.222Z,16.50
2019-05-25T08:13:14.097Z,16.50
2019-05-25T08:15:41.962Z,16.40
2019-05-25T08:18:09.866Z,16.40
2019-05-25T08:20:37.734Z,16.30
2019-05-25T08:23:05.605Z,16.20
2019-05-25T08:25:33.457Z,16.20
2019-05-25T08:28:01.338Z,16.20
2019-05-25T08:30:29.199Z,16.20
2019-05-25T08:32:57.073Z,16.30
2019-05-25T08:35:24.946Z,16.40
2019-05-25T08:37:52.811Z,16.50
2019-05-25T08:40:20.678Z,16.60
2019-05-25T08:42:48.544Z,16.80
2019-05-25T08:45:16.412Z,16.80
2019-05-25T08:47:44.270Z,17.00
2019-05-25T08:50:12.343Z,17.20
2019-05-25T08:52:40.207Z,17.40
2019-05-25T08:55:08.275Z,17.60
2019-05-25T08:57:36.131Z,17.40
2019-05-25T09:00:05.079Z,17.20
2019-05-25T09:02:32.946Z,17.10
2019-05-25T09:05:00.815Z,17.10
2019-05-25T09:07:28.698Z,16.90
2019-05-25T09:09:56.561Z,16.80
2019-05-25T09:12:24.426Z,16.60
2019-05-25T09:14:52.297Z,16.40
2019-05-25T09:17:20.178Z,16.30
2019-05-25T09:19:48.035Z,16.20
2019-05-25T09:22:15.901Z,16.10
2019-05-25T09:24:43.798Z,16.10
2019-05-25T09:27:11.673Z,16.00
2019-05-25T09:29:39.542Z,16.10
2019-05-25T09:32:07.424Z,16.10
2019-05-25T09:34:35.281Z,16.20
2019-05-25T09:37:03.151Z,16.30
2019-05-25T09:39:31.022Z,16.50
2019-05-25T09:41:58.888Z,16.70
2019-05-25T09:44:26.755Z,17.00
2019-05-25T09:46:54.617Z,17.10
2019-05-25T09:49:22.499Z,17.30
2019-05-25T09:51:50.371Z,17.20
2019-05-25T09:54:18.239Z,17.20
2019-05-25T09:56:46.098Z,17.10
2019-05-25T09:59:19.974Z,16.90
2019-05-25T10:01:43.559Z,16.90
2019-05-25T10:04:11.435Z,16.90
2019-05-25T10:06:39.295Z,16.90
2019-05-25T10:09:07.426Z,16.90
2019-05-25T10:11:35.294Z,17.00
2019-05-25T10:14:03.188Z,17.00
2019-05-25T10:16:31.040Z,17.20
2019-05-25T10:18:58.904Z,17.20
2019-05-25T10:21:26.776Z,17.20
2019-05-25T10:23:54.641Z,17.10
2019-05-25T10:26:23.164Z,17.00
2019-05-25T10:28:51.171Z,16.80
2019-05-25T10:31:19.056Z,16.90
2019-05-25T10:33:46.917Z,16.90
2019-05-25T10:36:14.819Z,16.90
2019-05-25T10:38:42.722Z,16.90
2019-05-25T10:41:10.586Z,17.10
2019-05-25T10:43:38.450Z,17.30
2019-05-25T10:46:06.452Z,17.40
2019-05-25T10:48:34.289Z,17.60
2019-05-25T10:51:02.163Z,17.50
2019-05-25T10:53:30.025Z,17.30
2019-05-25T10:55:57.891Z,17.30
2019-05-25T10:58:25.754Z,17.30
2019-05-25T11:00:53.626Z,17.30
2019-05-25T11:03:21.499Z,17.30
2019-05-25T11:05:49.361Z,17.40
2019-05-25T11:08:17.236Z,17.40
2019-05-25T11:10:45.107Z,17.60
2019-05-25T11:13:12.965Z,17.60
2019-05-25T11:15:40.857Z,17.50
2019-05-25T11:18:08.725Z,17.40
2019-05-25T11:20:36.585Z,17.50
2019-05-25T11:23:04.459Z,17.50
2019-05-25T11:25:32.326Z,17.60
2019-05-25T11:28:00.190Z,17.70
2019-05-25T11:30:47.315Z,17.60
2019-05-25T11:33:15.185Z,17.70
2019-05-25T11:35:43.956Z,17.70
2019-05-25T11:38:11.919Z,17.70
2019-05-25T11:40:39.796Z,17.70
2019-05-25T11:43:07.654Z,17.70
2019-05-25T11:45:35.529Z,17.60
2019-05-25T11:48:03.402Z,17.60
2019-05-25T11:50:31.262Z,17.60
2019-05-25T11:52:59.132Z,17.80
2019-05-25T11:55:26.995Z,17.80
2019-05-25T11:57:54.854Z,17.80
2019-05-25T12:00:25.359Z,17.80
2019-05-25T12:02:52.545Z,17.70
2019-05-25T12:05:20.512Z,17.70
2019-05-25T12:07:48.379Z,17.60
2019-05-25T12:10:16.626Z,17.60
2019-05-25T12:13:11.083Z,17.60
2019-05-25T12:15:38.953Z,17.80
2019-05-25T12:18:06.819Z,17.90
2019-05-25T12:20:34.704Z,17.90
2019-05-25T12:23:03.117Z,17.80
2019-05-25T12:25:31.423Z,17.90
2019-05-25T12:27:59.294Z,17.80
2019-05-25T12:30:39.616Z,17.90
2019-05-25T12:32:56.955Z,17.80
2019-05-25T12:35:24.833Z,18.00
2019-05-25T12:37:52.696Z,18.10
2019-05-25T12:40:20.554Z,18.10
2019-05-25T12:42:48.435Z,18.20
2019-05-25T12:45:16.302Z,18.20
2019-05-25T12:47:44.162Z,18.10
2019-05-25T12:50:13.192Z,18.00
2019-05-25T12:52:41.129Z,18.00
2019-05-25T12:55:09.092Z,18.00
2019-05-25T12:57:36.962Z,17.90
2019-05-25T13:00:15.075Z,17.80
2019-05-25T13:02:35.033Z,17.80
2019-05-25T13:05:02.906Z,17.90
2019-05-25T13:07:30.770Z,17.70
2019-05-25T13:09:58.647Z,17.80
2019-05-25T13:12:26.510Z,17.90
2019-05-25T13:14:54.396Z,18.00
2019-05-25T13:17:22.250Z,18.00
2019-05-25T13:19:50.123Z,18.00
2019-05-25T13:22:17.993Z,18.00
2019-05-25T13:24:45.893Z,17.90
2019-05-25T13:27:13.742Z,18.00
2019-05-25T13:29:41.618Z,18.10
2019-05-25T13:32:09.489Z,18.30
2019-05-25T13:34:37.368Z,18.40
2019-05-25T13:37:05.258Z,18.30
2019-05-25T13:39:33.135Z,18.20
2019-05-25T13:42:01.002Z,18.00
2019-05-25T13:44:28.871Z,18.00
2019-05-25T13:46:56.750Z,18.00
2019-05-25T13:49:24.621Z,17.90
2019-05-25T13:51:52.482Z,17.90
2019-05-25T13:54:20.347Z,18.00
2019-05-25T13:56:48.278Z,17.90
2019-05-25T13:59:16.185Z,17.80
2019-05-25T14:01:44.057Z,17.60
2019-05-25T14:04:11.922Z,17.60
2019-05-25T14:06:39.846Z,17.70
2019-05-25T14:09:07.650Z,17.70
2019-05-25T14:11:35.626Z,17.70
2019-05-25T14:14:03.494Z,17.70
2019-05-25T14:16:31.362Z,17.70
2019-05-25T14:18:59.227Z,17.60
2019-05-25T14:21:27.091Z,17.40
2019-05-25T14:23:54.957Z,17.40
2019-05-25T14:26:22.827Z,17.30
2019-05-25T14:28:50.706Z,17.30
2019-05-25T14:31:18.561Z,17.40
2019-05-25T14:33:46.526Z,17.50
2019-05-25T14:36:14.511Z,17.60
2019-05-25T14:38:42.383Z,17.50
2019-05-25T14:41:10.242Z,17.40
2019-05-25T14:43:38.110Z,17.50
2019-05-25T14:46:05.975Z,17.30
2019-05-25T14:48:33.846Z,17.20
2019-05-25T14:51:01.720Z,17.20
2019-05-25T14:53:29.583Z,17.20
2019-05-25T14:55:57.536Z,17.20
2019-05-25T14:58:25.398Z,17.10
2019-05-25T15:00:53.270Z,17.10
2019-05-25T15:03:21.137Z,16.90
2019-05-25T15:05:49.016Z,16.80
2019-05-25T15:08:16.887Z,16.70
2019-05-25T15:10:44.751Z,16.70
2019-05-25T15:13:12.618Z,16.80
2019-05-25T15:15:40.490Z,16.80
2019-05-25T15:18:08.362Z,16.80
2019-05-25T15:20:36.231Z,16.70
2019-05-25T15:23:04.125Z,16.80
2019-05-25T15:25:31.978Z,16.70
2019-05-25T15:27:59.853Z,16.70
2019-05-25T15:30:27.713Z,16.70
2019-05-25T15:32:55.583Z,16.70
2019-05-25T15:35:23.450Z,16.80
2019-05-25T15:37:51.328Z,16.80
2019-05-25T15:40:19.307Z,16.90
2019-05-25T15:42:47.170Z,16.80
2019-05-25T15:45:15.035Z,16.80
2019-05-25T15:47:42.907Z,16.80
2019-05-25T15:50:11.481Z,16.70
2019-05-25T15:52:39.350Z,16.80
2019-05-25T15:55:08.214Z,16.70
2019-05-25T15:57:36.088Z,16.70
2019-05-25T16:00:11.279Z,16.70
2019-05-25T16:02:39.139Z,16.50
2019-05-25T16:05:07.212Z,16.50
2019-05-25T16:07:37.782Z,16.40
2019-05-25T16:10:06.828Z,16.50
2019-05-25T16:12:37.627Z,16.40
2019-05-25T16:15:06.403Z,16.40
2019-05-25T16:17:34.275Z,16.30
2019-05-25T16:20:02.131Z,16.30
2019-05-25T16:22:30.295Z,16.20
2019-05-25T16:24:58.159Z,16.20
2019-05-25T16:27:26.023Z,16.10
2019-05-25T16:29:53.890Z,16.10
2019-05-25T16:32:21.759Z,16.10
2019-05-25T16:34:49.636Z,16.10
2019-05-25T16:37:17.711Z,16.10
2019-05-25T16:39:45.775Z,16.10
2019-05-25T16:42:13.647Z,16.10
2019-05-25T16:44:41.503Z,16.20
2019-05-25T16:47:09.380Z,16.10
2019-05-25T16:49:37.283Z,16.10
2019-05-25T16:52:05.150Z,16.10
2019-05-25T16:54:33.016Z,16.00
2019-05-25T16:57:00.883Z,16.00
2019-05-25T16:59:28.767Z,16.00
2019-05-25T17:01:56.633Z,16.00
2019-05-25T17:04:24.502Z,15.90
2019-05-25T17:06:52.367Z,15.90
2019-05-25T17:09:20.234Z,15.80
2019-05-25T17:11:48.101Z,15.80
2019-05-25T17:14:15.970Z,15.70
2019-05-25T17:16:43.843Z,15.70
2019-05-25T17:19:11.715Z,15.70
2019-05-25T17:21:39.582Z,15.50
2019-05-25T17:24:07.452Z,15.40
2019-05-25T17:26:35.324Z,15.20
2019-05-25T17:29:03.182Z,15.20
2019-05-25T17:31:31.045Z,15.10
2019-05-25T17:33:58.920Z,15.10
2019-05-25T17:36:26.777Z,15.10
2019-05-25T17:38:54.653Z,15.10
2019-05-25T17:41:22.515Z,15.10
2019-05-25T17:43:50.390Z,15.10
2019-05-25T17:46:18.256Z,15.00
2019-05-25T17:48:46.134Z,14.90
2019-05-25T17:51:14.089Z,14.90
2019-05-25T17:53:42.088Z,14.80
2019-05-25T17:56:09.965Z,14.80
2019-05-25T17:58:37.927Z,14.80
2019-05-25T18:01:05.797Z,14.80
2019-05-25T18:03:33.660Z,14.80
2019-05-25T18:06:01.527Z,14.60
2019-05-25T18:08:29.391Z,14.60
2019-05-25T18:10:57.261Z,14.60
2019-05-25T18:13:28.681Z,14.60
2019-05-25T18:15:54.655Z,14.60
2019-05-25T18:18:22.523Z,14.60
2019-05-25T18:20:50.616Z,14.60
2019-05-25T18:23:18.809Z,14.60
2019-05-25T18:25:46.709Z,14.50
2019-05-25T18:28:14.702Z,14.50
2019-05-25T18:30:42.564Z,14.50
2019-05-25T18:33:10.526Z,14.60
2019-05-25T18:35:38.394Z,14.60
2019-05-25T18:38:06.261Z,14.50
2019-05-25T18:40:34.126Z,14.50
2019-05-25T18:43:02.009Z,14.50
2019-05-25T18:45:29.879Z,14.50
2019-05-25T18:47:57.742Z,14.40
2019-05-25T18:50:25.727Z,14.40
2019-05-25T18:52:53.624Z,14.40
2019-05-25T18:55:21.587Z,14.40
2019-05-25T18:57:49.451Z,14.30
2019-05-25T19:00:17.897Z,14.30
2019-05-25T19:02:45.832Z,14.30
2019-05-25T19:05:13.726Z,14.30
2019-05-25T19:07:41.567Z,14.30
2019-05-25T19:10:09.531Z,14.30
2019-05-25T19:12:37.398Z,14.20
2019-05-25T19:15:11.190Z,14.20
2019-05-25T19:17:39.089Z,14.20
2019-05-25T19:20:07.218Z,14.20
2019-05-25T19:22:35.052Z,14.20
2019-05-25T19:27:54.000Z,14.20
2019-05-25T19:30:22.073Z,14.10
2019-05-25T19:35:26.144Z,14.10
2019-05-25T19:37:54.003Z,14.10
2019-05-25T19:40:21.875Z,14.10
2019-05-25T19:42:50.296Z,14.00
2019-05-25T19:45:18.493Z,14.00
2019-05-25T19:47:46.378Z,14.00
2019-05-25T19:50:14.436Z,14.00
2019-05-25T19:52:42.303Z,13.90
2019-05-25T19:55:10.462Z,13.90
2019-05-25T19:57:38.331Z,13.80
2019-05-25T20:00:06.795Z,13.90
2019-05-25T20:02:34.668Z,13.90
2019-05-25T20:05:15.660Z,13.90
2019-05-25T20:07:32.650Z,13.80
2019-05-25T20:10:00.522Z,13.80
2019-05-25T20:12:28.386Z,13.80
2019-05-25T20:14:56.264Z,13.80
2019-05-25T20:17:24.118Z,13.70
2019-05-25T20:19:51.985Z,13.70
2019-05-25T20:22:19.847Z,13.70
2019-05-25T20:24:47.726Z,13.70
2019-05-25T20:27:15.598Z,13.70
2019-05-25T20:29:43.461Z,13.70
2019-05-25T20:32:11.327Z,13.60
2019-05-25T20:34:39.194Z,13.60
2019-05-25T20:37:07.161Z,13.60
2019-05-25T20:39:35.035Z,13.50
2019-05-25T20:42:02.901Z,13.50
2019-05-25T20:44:30.784Z,13.50
2019-05-25T20:46:58.642Z,13.50
2019-05-25T20:49:26.505Z,13.50
2019-05-25T20:51:54.375Z,13.50
2019-05-25T20:54:22.237Z,13.40
2019-05-25T20:56:50.111Z,13.40
2019-05-25T20:59:17.986Z,13.30
2019-05-25T21:01:45.864Z,13.40
2019-05-25T21:04:13.721Z,13.30
2019-05-25T21:06:41.588Z,13.30
2019-05-25T21:09:09.448Z,13.30
2019-05-25T21:11:37.316Z,13.20
2019-05-25T21:14:05.179Z,13.10
2019-05-25T21:16:33.051Z,13.10
2019-05-25T21:19:02.960Z,13.00
2019-05-25T21:21:30.435Z,13.00
2019-05-25T21:23:58.293Z,13.00
2019-05-25T21:26:26.163Z,13.00
2019-05-25T21:28:54.023Z,13.00
2019-05-25T21:31:23.994Z,13.00
2019-05-25T21:33:51.401Z,12.90
2019-05-25T21:36:19.270Z,13.00
2019-05-25T21:38:47.132Z,12.90
2019-05-25T21:41:15.011Z,12.90
2019-05-25T21:43:42.910Z,12.90
2019-05-25T21:46:10.738Z,12.80
2019-05-25T21:48:38.605Z,12.80
2019-05-25T21:51:06.472Z,12.70
2019-05-25T21:53:34.333Z,12.80
2019-05-25T21:56:02.207Z,12.70
2019-05-25T21:58:30.078Z,12.70
2019-05-25T22:00:58.010Z,12.60
2019-05-25T22:03:25.883Z,12.60
2019-05-25T22:05:53.745Z,12.50
2019-05-25T22:08:21.618Z,12.50
2019-05-25T22:10:49.483Z,12.50
2019-05-25T22:13:27.853Z,12.50
2019-05-25T22:15:46.863Z,12.40
2019-05-25T22:18:19.556Z,12.40
2019-05-25T22:20:47.810Z,12.30
2019-05-25T22:23:15.739Z,12.30
2019-05-25T22:25:43.550Z,12.30
2019-05-25T22:28:11.418Z,12.30
2019-05-25T22:30:39.287Z,12.30
2019-05-25T22:33:07.150Z,12.20
2019-05-25T22:35:35.117Z,12.20
2019-05-25T22:38:02.980Z,12.10
2019-05-25T22:40:30.873Z,12.10
2019-05-25T22:42:58.733Z,12.10
2019-05-25T22:45:26.605Z,12.00
2019-05-25T22:47:54.473Z,11.90
2019-05-25T22:50:22.335Z,11.90
2019-05-25T22:52:50.210Z,11.90
2019-05-25T22:55:18.081Z,11.90
2019-05-25T22:57:45.941Z,11.80
2019-05-25T23:00:14.388Z,11.80
2019-05-25T23:02:42.395Z,11.80
2019-05-25T23:07:37.786Z,11.70
2019-05-25T23:10:08.611Z,11.60
2019-05-25T23:12:36.477Z,11.60
